createdAt,value
2018-08-03T00:08:26.497Z,1.5
2018-08-03T00:18:40.821Z,1.1
2018-08-03T00:39:27.687Z,3.0
2018-08-03T00:50:12.935Z,1.7
2018-08-03T01:00:27.003Z,1.6
2018-08-03T01:10:42.395Z,1.7
2018-08-03T01:20:56.859Z,2.1
2018-08-03T01:31:12.033Z,1.9
2018-08-03T01:41:25.682Z,2.0
2018-08-03T01:51:39.959Z,1.7
2018-08-03T02:02:25.496Z,3.0
2018-08-03T02:12:38.995Z,1.9
2018-08-03T02:22:53.483Z,1.8
2018-08-03T02:33:08.197Z,3.4
2018-08-03T02:43:27.179Z,2.9
2018-08-03T02:53:41.438Z,2.4
2018-08-03T03:04:02.259Z,2.6
2018-08-03T03:14:16.506Z,2.2
2018-08-03T03:24:30.851Z,3.0
2018-08-03T03:35:14.833Z,1.9
2018-08-03T03:45:28.535Z,2.7
2018-08-03T03:55:40.694Z,3.0
2018-08-03T04:05:56.263Z,3.4
2018-08-03T04:16:08.448Z,3.1
2018-08-03T04:26:21.328Z,2.5
2018-08-03T04:36:35.545Z,2.7
2018-08-03T04:46:49.650Z,3.4
2018-08-03T04:57:03.329Z,4.3
2018-08-03T05:07:23.153Z,4.3
2018-08-03T05:17:36.507Z,4.2
2018-08-03T05:27:47.758Z,6.1
2018-08-03T05:38:02.139Z,5.2
2018-08-03T05:48:47.489Z,5.9
2018-08-03T05:59:00.980Z,4.0
2018-08-03T06:09:15.238Z,4.7
2018-08-03T06:19:29.405Z,5.2
2018-08-03T06:40:02.492Z,5.7
2018-08-03T06:50:16.957Z,4.4
2018-08-03T07:00:28.075Z,6.2
2018-08-03T07:11:13.657Z,5.6
2018-08-03T07:21:27.444Z,4.3
2018-08-03T07:32:12.886Z,3.8
2018-08-03T07:42:27.201Z,4.8
2018-08-03T07:52:41.854Z,4.8
2018-08-03T08:02:55.418Z,3.6
2018-08-03T08:13:09.792Z,4.4
2018-08-03T08:23:23.973Z,3.4
2018-08-03T08:34:09.372Z,3.3
2018-08-03T08:44:23.038Z,2.4
2018-08-03T08:54:37.235Z,3.0
2018-08-03T09:04:49.245Z,2.6
2018-08-03T09:15:02.970Z,2.0
2018-08-03T09:25:14.862Z,1.6
2018-08-03T09:36:00.413Z,2.4
2018-08-03T09:46:13.935Z,1.4
2018-08-03T09:56:28.539Z,1.3
2018-08-03T10:06:42.330Z,1.6
2018-08-03T10:16:57.079Z,2.0
2018-08-03T10:27:11.109Z,1.8
2018-08-03T10:47:39.386Z,1.4
2018-08-03T10:58:27.848Z,1.6
2018-08-03T11:08:39.576Z,2.0
2018-08-03T11:18:51.666Z,1.5
2018-08-03T11:29:26.809Z,1.5
2018-08-03T11:39:38.487Z,1.4
2018-08-03T11:49:52.375Z,1.6
2018-08-03T12:02:04.184Z,1.8
2018-08-03T12:13:11.691Z,1.8
2018-08-03T13:34:19.095Z,1.5
2018-08-03T14:06:29.356Z,1.3
2018-08-03T14:16:43.041Z,1.6
2018-08-03T14:26:57.266Z,1.5
2018-08-03T14:37:11.313Z,1.8
2018-08-03T14:47:25.560Z,1.7
2018-08-03T14:57:40.009Z,1.5
2018-08-03T15:07:51.999Z,1.9
2018-08-03T15:18:03.417Z,1.5
2018-08-03T15:28:25.589Z,1.6
2018-08-03T15:38:40.377Z,2.2
2018-08-03T15:49:06.596Z,1.9
2018-08-03T15:59:26.425Z,1.9
2018-08-03T16:09:45.167Z,1.6
2018-08-03T16:20:42.045Z,1.4
2018-08-03T16:30:56.635Z,1.5
2018-08-03T16:41:11.136Z,1.8
2018-08-03T16:51:24.971Z,1.7
2018-08-03T17:01:39.044Z,1.5
2018-08-03T17:11:53.456Z,1.6
2018-08-03T17:22:09.644Z,1.8
2018-08-03T17:32:55.005Z,2.0
2018-08-03T17:43:41.670Z,1.9
2018-08-03T17:53:55.261Z,1.1
2018-08-03T18:04:09.487Z,1.2
2018-08-03T18:14:21.600Z,1.6
2018-08-03T18:25:07.139Z,2.7
2018-08-03T18:35:18.416Z,2.2
2018-08-03T18:45:33.614Z,1.9
2018-08-03T18:55:54.965Z,2.7
2018-08-03T19:06:13.848Z,1.6
2018-08-03T19:17:00.086Z,2.0
2018-08-03T19:27:12.498Z,2.2
2018-08-03T19:37:24.546Z,1.8
2018-08-03T19:47:44.271Z,1.5
2018-08-03T19:57:58.749Z,1.2
2018-08-03T20:08:13.304Z,1.1
2018-08-03T20:18:58.686Z,1.7
2018-08-03T20:29:47.258Z,0.9
2018-08-03T20:41:16.759Z,1.0
2018-08-03T20:51:31.103Z,1.4
2018-08-03T21:01:54.186Z,1.1
2018-08-03T21:12:56.970Z,1.5
2018-08-03T21:24:13.195Z,1.4
2018-08-03T21:34:51.810Z,1.2
2018-08-03T21:46:11.365Z,1.4
2018-08-03T22:17:10.785Z,0.9
2018-08-03T22:27:45.333Z,1.0
2018-08-03T22:38:09.518Z,1.4
2018-08-03T22:48:44.025Z,1.3
2018-08-03T22:59:17.561Z,1.4
2018-08-03T23:09:51.321Z,0.9
2018-08-03T23:31:09.118Z,1.1
2018-08-03T23:41:53.386Z,1.4
2018-08-03T23:52:24.887Z,0.9
